createdAt,value
2022-07-29T00:02:25.654Z,4.78
2022-07-29T00:04:52.335Z,3.97
2022-07-29T00:07:19.008Z,5.50
2022-07-29T00:09:50.843Z,5.25
2022-07-29T00:12:21.443Z,4.82
2022-07-29T00:14:54.307Z,3.90
2022-07-29T00:17:20.853Z,4.65
2022-07-29T00:19:47.584Z,4.67
2022-07-29T00:22:14.185Z,6.53
2022-07-29T00:24:40.706Z,5.88
2022-07-29T00:27:07.535Z,5.35
2022-07-29T00:29:35.620Z,5.05
2022-07-29T00:32:03.505Z,3.17
2022-07-29T00:34:49.229Z,5.90
2022-07-29T00:37:15.775Z,5.15
2022-07-29T00:39:42.375Z,4.68
2022-07-29T00:42:09.224Z,4.63
2022-07-29T00:44:43.013Z,8.47
2022-07-29T00:47:11.508Z,4.53
2022-07-29T00:49:40.601Z,4.40
2022-07-29T00:52:08.776Z,5.20
2022-07-29T00:54:44.638Z,4.43
2022-07-29T00:57:12.613Z,5.07
2022-07-29T00:59:39.370Z,4.22
2022-07-29T01:02:06.139Z,4.80
2022-07-29T01:04:33.225Z,5.72
2022-07-29T01:07:02.087Z,6.47
2022-07-29T01:09:45.745Z,4.90
2022-07-29T01:12:18.396Z,4.93
2022-07-29T01:14:46.830Z,5.47
2022-07-29T01:17:21.719Z,5.65
2022-07-29T01:19:52.842Z,5.45
2022-07-29T01:22:42.155Z,5.93
2022-07-29T01:25:46.837Z,4.95
2022-07-29T01:28:52.111Z,7.15
2022-07-29T01:31:26.716Z,5.70
2022-07-29T01:34:00.199Z,7.03
2022-07-29T01:36:47.418Z,7.17
2022-07-29T01:39:28.332Z,5.80
2022-07-29T01:42:24.477Z,5.55
2022-07-29T01:45:00.189Z,5.97
2022-07-29T01:47:36.882Z,4.70
2022-07-29T01:50:08.340Z,6.27
2022-07-29T01:52:44.313Z,5.07
2022-07-29T01:55:15.412Z,6.07
2022-07-29T01:57:46.578Z,5.43
2022-07-29T02:00:14.115Z,6.78
2022-07-29T02:02:44.575Z,4.57
2022-07-29T02:05:15.754Z,5.53
2022-07-29T02:07:44.109Z,6.20
2022-07-29T02:10:13.403Z,6.97
2022-07-29T02:12:43.437Z,4.28
2022-07-29T02:15:17.677Z,4.97
2022-07-29T02:17:55.171Z,4.82
2022-07-29T02:20:25.820Z,5.55
2022-07-29T02:22:54.127Z,5.20
2022-07-29T02:25:23.235Z,6.45
2022-07-29T02:27:52.560Z,4.40
2022-07-29T02:30:22.766Z,5.50
2022-07-29T02:32:50.616Z,6.30
2022-07-29T02:35:18.079Z,4.90
2022-07-29T02:38:06.548Z,5.13
2022-07-29T02:40:37.395Z,5.77
2022-07-29T02:43:07.461Z,6.43
2022-07-29T02:45:37.582Z,6.45
2022-07-29T02:48:14.432Z,6.75
2022-07-29T02:50:51.233Z,5.60
2022-07-29T02:53:25.190Z,5.23
2022-07-29T02:56:01.052Z,6.65
2022-07-29T02:58:39.036Z,5.00
2022-07-29T03:01:15.690Z,7.18
2022-07-29T03:03:47.355Z,5.47
2022-07-29T03:06:28.023Z,5.43
2022-07-29T03:09:05.029Z,7.70
2022-07-29T03:11:46.242Z,5.35
2022-07-29T03:14:19.154Z,5.57
2022-07-29T03:16:46.644Z,4.80
2022-07-29T03:19:14.055Z,3.90
2022-07-29T03:21:40.728Z,5.20
2022-07-29T03:24:10.481Z,6.40
2022-07-29T03:26:38.682Z,6.20
2022-07-29T03:29:05.271Z,7.28
2022-07-29T03:31:33.387Z,4.70
2022-07-29T03:34:00.402Z,7.15
2022-07-29T03:36:27.095Z,6.15
2022-07-29T03:38:54.119Z,5.90
2022-07-29T03:41:23.245Z,5.78
2022-07-29T03:43:52.727Z,5.37
2022-07-29T03:46:23.476Z,5.95
2022-07-29T03:48:53.908Z,7.55
2022-07-29T03:51:33.309Z,6.45
2022-07-29T03:54:06.359Z,6.30
2022-07-29T03:56:40.677Z,7.30
2022-07-29T03:59:08.182Z,6.05
2022-07-29T04:01:35.770Z,6.88
2022-07-29T04:04:04.237Z,8.23
2022-07-29T04:06:40.141Z,7.68
2022-07-29T04:09:06.980Z,6.00
2022-07-29T04:12:02.124Z,5.18
2022-07-29T04:14:25.820Z,6.97
2022-07-29T04:16:53.918Z,6.28
2022-07-29T04:19:20.477Z,6.60
2022-07-29T04:21:47.058Z,5.83
2022-07-29T04:24:14.180Z,6.68
2022-07-29T04:26:41.020Z,6.95
2022-07-29T04:29:07.639Z,7.22
2022-07-29T04:31:34.378Z,7.43
2022-07-29T04:34:01.026Z,8.20
2022-07-29T04:36:29.578Z,6.90
2022-07-29T04:38:56.848Z,6.72
2022-07-29T04:41:23.450Z,5.93
2022-07-29T04:44:02.194Z,7.88
2022-07-29T04:46:29.148Z,6.73
2022-07-29T04:48:56.026Z,6.22
2022-07-29T04:51:22.739Z,10.20
2022-07-29T04:53:49.287Z,5.60
2022-07-29T04:56:15.865Z,6.93
2022-07-29T04:58:42.450Z,7.00
2022-07-29T05:01:09.164Z,6.95
2022-07-29T05:03:35.838Z,6.07
2022-07-29T05:06:02.458Z,6.07
2022-07-29T05:08:29.116Z,5.95
2022-07-29T05:10:55.668Z,7.17
2022-07-29T05:13:22.264Z,7.57
2022-07-29T05:15:49.142Z,7.82
2022-07-29T05:18:15.741Z,6.35
2022-07-29T05:20:42.336Z,6.35
2022-07-29T05:23:08.879Z,6.23
2022-07-29T05:25:43.689Z,5.43
2022-07-29T05:28:12.051Z,5.60
2022-07-29T05:30:40.130Z,6.80
2022-07-29T05:33:06.741Z,6.25
2022-07-29T05:35:33.438Z,5.00
2022-07-29T05:37:59.983Z,6.78
2022-07-29T05:40:26.530Z,8.82
2022-07-29T05:42:53.270Z,7.00
2022-07-29T05:45:19.841Z,5.93
2022-07-29T05:47:46.574Z,6.77
2022-07-29T05:50:13.342Z,6.32
2022-07-29T05:52:40.123Z,5.57
2022-07-29T05:55:07.006Z,7.50
2022-07-29T05:57:33.723Z,7.47
2022-07-29T06:00:00.442Z,5.03
2022-07-29T06:02:27.240Z,5.35
2022-07-29T06:04:54.012Z,6.78
2022-07-29T06:07:20.938Z,6.60
2022-07-29T06:09:47.578Z,7.70
2022-07-29T06:12:14.190Z,6.50
2022-07-29T06:14:41.151Z,6.97
2022-07-29T06:17:07.980Z,6.32
2022-07-29T06:19:38.877Z,6.60
2022-07-29T06:22:05.853Z,5.85
2022-07-29T06:24:32.537Z,7.20
2022-07-29T06:26:59.621Z,6.65
2022-07-29T06:29:26.209Z,7.68
2022-07-29T06:31:52.763Z,6.93
2022-07-29T06:34:20.212Z,7.05
2022-07-29T06:36:47.595Z,8.10
2022-07-29T06:39:15.701Z,8.23
2022-07-29T06:41:42.508Z,7.82
2022-07-29T06:44:09.139Z,8.65
2022-07-29T06:46:35.757Z,10.63
2022-07-29T06:49:03.374Z,5.80
2022-07-29T06:51:30.536Z,6.80
2022-07-29T06:54:02.412Z,6.35
2022-07-29T06:56:32.440Z,7.63
2022-07-29T06:59:06.518Z,7.05
2022-07-29T07:01:33.186Z,7.27
2022-07-29T07:04:00.146Z,8.68
2022-07-29T07:06:27.042Z,6.93
2022-07-29T07:08:53.643Z,7.13
2022-07-29T07:11:20.304Z,6.88
2022-07-29T07:13:46.932Z,6.97
2022-07-29T07:16:13.549Z,7.93
2022-07-29T07:18:40.726Z,8.00
2022-07-29T07:21:07.476Z,7.43
2022-07-29T07:23:34.070Z,7.72
2022-07-29T07:26:00.675Z,9.77
2022-07-29T07:28:27.218Z,7.30
2022-07-29T07:30:53.859Z,9.48
2022-07-29T07:33:20.515Z,7.85
2022-07-29T07:35:47.645Z,5.88
2022-07-29T07:38:14.464Z,6.43
2022-07-29T07:40:41.738Z,8.55
2022-07-29T07:43:08.356Z,6.90
2022-07-29T07:45:35.508Z,6.75
2022-07-29T07:48:02.156Z,5.85
2022-07-29T07:50:28.770Z,9.27
2022-07-29T07:52:59.289Z,6.35
2022-07-29T07:55:26.950Z,6.65
2022-07-29T07:57:54.517Z,6.75
2022-07-29T08:00:23.003Z,5.68
2022-07-29T08:02:51.903Z,6.80
2022-07-29T08:05:18.999Z,6.75
2022-07-29T08:07:50.732Z,6.28
2022-07-29T08:10:41.444Z,7.78
2022-07-29T08:13:09.893Z,7.50
2022-07-29T08:15:36.943Z,6.27
2022-07-29T08:18:08.493Z,7.30
2022-07-29T08:20:36.767Z,6.53
2022-07-29T08:23:05.397Z,9.02
2022-07-29T08:25:32.096Z,9.55
2022-07-29T08:28:00.157Z,7.33
2022-07-29T08:30:26.772Z,6.75
2022-07-29T08:32:55.179Z,7.68
2022-07-29T08:35:24.532Z,7.38
2022-07-29T08:37:53.186Z,7.88
2022-07-29T08:40:32.013Z,7.13
2022-07-29T08:43:00.669Z,7.47
2022-07-29T08:45:29.117Z,6.53
2022-07-29T08:47:56.674Z,6.03
2022-07-29T08:50:23.379Z,9.60
2022-07-29T08:52:57.936Z,6.40
2022-07-29T08:55:26.641Z,6.28
2022-07-29T08:57:54.347Z,6.55
2022-07-29T09:00:25.585Z,7.25
2022-07-29T09:02:59.320Z,6.50
2022-07-29T09:05:27.572Z,7.33
2022-07-29T09:07:54.631Z,6.32
2022-07-29T09:10:21.546Z,7.22
2022-07-29T09:12:52.417Z,10.45
2022-07-29T09:15:19.639Z,6.35
2022-07-29T09:17:51.451Z,9.00
2022-07-29T09:20:20.196Z,5.03
2022-07-29T09:22:52.541Z,7.15
2022-07-29T09:25:39.297Z,6.07
2022-07-29T09:28:10.836Z,6.35
2022-07-29T09:30:53.317Z,7.03
2022-07-29T09:33:20.634Z,10.20
2022-07-29T09:35:56.543Z,7.93
2022-07-29T09:38:23.738Z,6.32
2022-07-29T09:41:06.084Z,6.05
2022-07-29T09:43:33.737Z,7.20
2022-07-29T09:46:14.363Z,7.40
2022-07-29T09:48:42.397Z,6.57
2022-07-29T09:51:27.026Z,6.97
2022-07-29T09:54:23.580Z,7.32
2022-07-29T09:56:53.849Z,9.30
2022-07-29T09:59:27.402Z,6.78
2022-07-29T10:01:55.020Z,6.85
2022-07-29T10:04:22.080Z,5.93
2022-07-29T10:07:04.694Z,7.35
2022-07-29T10:09:32.977Z,7.47
2022-07-29T10:12:15.377Z,7.10
2022-07-29T10:14:43.549Z,8.52
2022-07-29T10:17:12.525Z,5.72
2022-07-29T10:19:42.444Z,7.68
2022-07-29T10:22:10.621Z,6.23
2022-07-29T10:24:38.841Z,7.80
2022-07-29T10:27:07.911Z,7.28
2022-07-29T10:29:35.135Z,5.90
2022-07-29T10:32:07.840Z,7.45
2022-07-29T10:35:13.350Z,8.77
2022-07-29T10:37:46.164Z,7.93
2022-07-29T10:40:43.905Z,5.38
2022-07-29T10:43:27.135Z,5.75
2022-07-29T10:45:59.313Z,7.20
2022-07-29T10:48:26.345Z,9.53
2022-07-29T10:50:56.114Z,7.32
2022-07-29T10:53:24.760Z,7.55
2022-07-29T10:55:54.746Z,7.35
2022-07-29T10:58:26.335Z,5.35
2022-07-29T11:00:54.933Z,6.00
2022-07-29T11:03:50.875Z,6.63
2022-07-29T11:06:26.682Z,7.68
2022-07-29T11:09:34.864Z,6.50
2022-07-29T11:12:04.967Z,6.07
2022-07-29T11:15:09.220Z,7.80
2022-07-29T11:18:01.417Z,9.68
2022-07-29T11:20:45.919Z,6.43
2022-07-29T11:23:40.306Z,6.78
2022-07-29T11:29:06.680Z,5.63
2022-07-29T11:31:36.010Z,6.10
2022-07-29T11:34:23.742Z,7.80
2022-07-29T11:37:10.385Z,5.45
2022-07-29T11:39:45.000Z,7.35
2022-07-29T11:42:28.457Z,6.17
2022-07-29T11:48:27.827Z,5.22
2022-07-29T11:50:52.831Z,6.72
2022-07-29T11:53:19.661Z,6.90
2022-07-29T11:55:54.237Z,7.43
2022-07-29T11:58:25.095Z,6.72
2022-07-29T12:00:53.270Z,6.40
2022-07-29T12:03:35.349Z,7.07
2022-07-29T12:06:04.603Z,4.88
2022-07-29T12:07:02.021Z,7.25
2022-07-29T12:08:42.880Z,4.97
2022-07-29T12:11:17.686Z,6.18
2022-07-29T12:13:49.233Z,5.18
2022-07-29T12:16:25.819Z,7.65
2022-07-29T12:19:04.644Z,5.88
2022-07-29T12:22:01.025Z,5.50
2022-07-29T12:24:45.399Z,4.53
2022-07-29T12:27:13.060Z,7.00
2022-07-29T12:29:42.008Z,5.60
2022-07-29T12:32:19.722Z,5.60
2022-07-29T12:34:46.938Z,4.73
2022-07-29T12:37:13.689Z,3.63
2022-07-29T12:39:40.902Z,4.68
2022-07-29T12:42:18.795Z,6.20
2022-07-29T12:44:54.629Z,7.22
2022-07-29T12:47:22.100Z,7.50
2022-07-29T12:50:07.985Z,5.55
2022-07-29T12:52:35.827Z,4.93
2022-07-29T12:55:02.965Z,4.40
2022-07-29T12:57:30.319Z,7.32
2022-07-29T13:00:10.363Z,5.93
2022-07-29T13:02:39.360Z,5.72
2022-07-29T13:05:07.695Z,7.00
2022-07-29T13:07:55.724Z,5.25
2022-07-29T13:10:24.885Z,4.45
2022-07-29T13:13:11.388Z,5.90
2022-07-29T13:15:43.482Z,5.82
2022-07-29T13:18:33.489Z,6.50
2022-07-29T13:21:12.968Z,5.13
2022-07-29T13:23:39.899Z,6.45
2022-07-29T13:26:08.434Z,8.37
2022-07-29T13:28:35.286Z,5.72
2022-07-29T13:31:02.308Z,7.80
2022-07-29T13:33:28.909Z,5.95
2022-07-29T13:35:55.479Z,7.07
2022-07-29T13:38:21.980Z,6.43
2022-07-29T13:40:58.373Z,5.28
2022-07-29T13:43:25.032Z,5.68
2022-07-29T13:45:54.955Z,4.22
2022-07-29T13:48:21.798Z,6.13
2022-07-29T13:50:51.568Z,4.93
2022-07-29T13:53:18.246Z,6.25
2022-07-29T13:55:45.241Z,3.75
2022-07-29T13:58:11.811Z,5.55
2022-07-29T14:00:38.335Z,7.45
2022-07-29T14:03:05.060Z,5.73
2022-07-29T14:05:31.613Z,6.05
2022-07-29T14:07:58.203Z,5.40
2022-07-29T14:10:24.814Z,6.07
2022-07-29T14:12:51.739Z,6.35
2022-07-29T14:15:18.368Z,4.70
2022-07-29T14:17:45.609Z,5.53
2022-07-29T14:20:12.276Z,4.78
2022-07-29T14:22:42.317Z,6.72
2022-07-29T14:25:14.497Z,6.18
2022-07-29T14:27:42.849Z,4.60
2022-07-29T14:30:10.125Z,4.78
2022-07-29T14:32:36.682Z,7.72
2022-07-29T14:35:03.813Z,5.70
2022-07-29T14:37:39.364Z,7.75
2022-07-29T14:40:08.398Z,5.27
2022-07-29T14:42:35.079Z,4.85
2022-07-29T14:45:01.665Z,6.18
2022-07-29T14:47:28.407Z,4.72
2022-07-29T14:49:55.001Z,6.40
2022-07-29T14:52:21.788Z,6.90
2022-07-29T14:54:55.662Z,7.20
2022-07-29T14:57:22.254Z,6.88
2022-07-29T14:59:51.553Z,5.57
2022-07-29T15:02:18.198Z,8.50
2022-07-29T15:04:47.303Z,5.00
2022-07-29T15:07:13.892Z,8.52
2022-07-29T15:09:49.809Z,6.35
2022-07-29T15:12:19.312Z,5.07
2022-07-29T15:14:46.125Z,7.80
2022-07-29T15:17:14.074Z,6.53
2022-07-29T15:19:44.961Z,5.97
2022-07-29T15:22:11.789Z,7.22
2022-07-29T15:24:38.398Z,6.38
2022-07-29T15:27:05.183Z,8.77
2022-07-29T15:29:31.746Z,5.50
2022-07-29T15:31:58.507Z,10.20
2022-07-29T15:34:25.476Z,7.35
2022-07-29T15:36:53.980Z,8.57
2022-07-29T15:39:22.347Z,7.90
2022-07-29T15:41:53.427Z,11.80
2022-07-29T15:44:21.048Z,8.95
2022-07-29T15:47:03.556Z,5.85
2022-07-29T15:49:47.497Z,7.20
2022-07-29T15:52:25.676Z,5.23
2022-07-29T15:54:57.606Z,8.18
2022-07-29T15:57:24.947Z,8.03
2022-07-29T15:59:53.308Z,8.93
2022-07-29T16:02:20.004Z,7.97
2022-07-29T16:04:47.285Z,6.72
2022-07-29T16:07:31.292Z,5.90
2022-07-29T16:09:59.297Z,52.08
2022-07-29T16:12:25.880Z,8.03
2022-07-29T16:14:53.155Z,6.75
2022-07-29T16:17:21.304Z,7.15
2022-07-29T16:19:51.627Z,10.18
2022-07-29T16:22:18.286Z,7.10
2022-07-29T16:24:51.788Z,7.38
2022-07-29T16:27:27.042Z,7.18
2022-07-29T16:30:02.252Z,5.67
2022-07-29T16:32:28.864Z,6.65
2022-07-29T16:34:55.377Z,11.38
2022-07-29T16:37:22.334Z,9.73
2022-07-29T16:39:52.088Z,8.65
2022-07-29T16:42:36.896Z,10.67
2022-07-29T16:45:05.617Z,9.05
2022-07-29T16:47:32.386Z,6.78
2022-07-29T16:49:58.928Z,7.43
2022-07-29T16:52:25.815Z,8.32
2022-07-29T16:54:53.395Z,7.73
2022-07-29T16:57:27.876Z,5.55
2022-07-29T16:59:54.417Z,8.20
2022-07-29T17:02:21.046Z,8.63
2022-07-29T17:04:47.687Z,8.35
2022-07-29T17:07:14.925Z,10.45
2022-07-29T17:09:41.618Z,6.43
2022-07-29T17:12:08.558Z,8.13
2022-07-29T17:14:35.118Z,5.95
2022-07-29T17:17:03.008Z,6.15
2022-07-29T17:19:32.492Z,5.75
2022-07-29T17:22:08.404Z,5.72
2022-07-29T17:24:35.913Z,8.43
2022-07-29T17:27:02.488Z,9.60
2022-07-29T17:29:31.497Z,10.18
2022-07-29T17:31:59.570Z,7.75
2022-07-29T17:34:26.420Z,4.90
2022-07-29T17:36:56.734Z,6.23
2022-07-29T17:39:24.071Z,5.88
2022-07-29T17:41:54.020Z,6.93
2022-07-29T17:44:20.748Z,7.25
2022-07-29T17:46:47.760Z,6.20
2022-07-29T17:49:14.553Z,7.77
2022-07-29T17:51:41.493Z,7.50
2022-07-29T17:54:08.064Z,5.03
2022-07-29T17:56:34.681Z,5.75
2022-07-29T17:59:06.362Z,6.68
2022-07-29T18:01:33.873Z,5.70
2022-07-29T18:04:00.563Z,6.10
2022-07-29T18:06:27.272Z,4.90
2022-07-29T18:08:54.244Z,7.40
2022-07-29T18:11:21.596Z,6.35
2022-07-29T18:13:51.247Z,6.90
2022-07-29T18:16:18.615Z,7.03
2022-07-29T18:18:45.527Z,4.57
2022-07-29T18:21:12.805Z,5.32
2022-07-29T18:23:39.435Z,7.03
2022-07-29T18:26:05.986Z,6.33
2022-07-29T18:28:32.832Z,6.85
2022-07-29T18:31:00.663Z,7.03
2022-07-29T18:33:27.842Z,8.00
2022-07-29T18:36:11.282Z,6.25
2022-07-29T18:38:42.164Z,5.50
2022-07-29T18:41:08.768Z,5.20
2022-07-29T18:43:35.536Z,6.35
2022-07-29T18:46:02.590Z,8.30
2022-07-29T18:48:29.198Z,7.25
2022-07-29T18:50:55.770Z,6.80
2022-07-29T18:53:22.327Z,5.47
2022-07-29T18:55:51.458Z,5.43
2022-07-29T18:58:18.008Z,8.50
2022-07-29T19:00:45.298Z,5.93
2022-07-29T19:03:11.998Z,7.70
2022-07-29T19:05:38.700Z,8.77
2022-07-29T19:08:06.409Z,7.05
2022-07-29T19:10:33.001Z,8.43
2022-07-29T19:12:59.603Z,6.00
2022-07-29T19:15:26.343Z,7.10
2022-07-29T19:17:54.748Z,10.68
2022-07-29T19:20:24.325Z,5.97
2022-07-29T19:22:50.988Z,8.32
2022-07-29T19:25:19.534Z,5.68
2022-07-29T19:27:48.286Z,6.43
2022-07-29T19:30:17.338Z,7.90
2022-07-29T19:32:43.926Z,6.32
2022-07-29T19:35:28.460Z,7.07
2022-07-29T19:37:56.518Z,7.45
2022-07-29T19:40:23.388Z,6.63
2022-07-29T19:42:51.687Z,9.88
2022-07-29T19:45:21.577Z,6.22
2022-07-29T19:47:52.461Z,8.80
2022-07-29T19:50:19.681Z,8.65
2022-07-29T19:52:47.549Z,10.87
2022-07-29T19:55:15.086Z,7.13
2022-07-29T19:57:42.009Z,8.60
2022-07-29T20:00:11.092Z,8.65
2022-07-29T20:02:39.340Z,6.93
2022-07-29T20:05:07.288Z,9.20
2022-07-29T20:07:34.303Z,11.77
2022-07-29T20:10:01.165Z,8.90
2022-07-29T20:12:28.278Z,8.07
2022-07-29T20:14:54.896Z,10.30
2022-07-29T20:17:22.419Z,11.73
2022-07-29T20:19:53.275Z,10.95
2022-07-29T20:22:21.191Z,10.10
2022-07-29T20:24:53.784Z,11.60
2022-07-29T20:27:20.750Z,11.70
2022-07-29T20:29:47.845Z,9.27
2022-07-29T20:32:14.591Z,12.30
2022-07-29T20:34:41.498Z,10.95
2022-07-29T20:37:13.336Z,13.20
2022-07-29T20:39:41.282Z,11.93
2022-07-29T20:42:08.005Z,9.57
2022-07-29T20:44:34.927Z,10.02
2022-07-29T20:47:03.225Z,10.00
2022-07-29T20:49:30.137Z,11.25
2022-07-29T20:51:56.921Z,11.02
2022-07-29T20:54:23.623Z,11.67
2022-07-29T20:56:52.082Z,11.73
2022-07-29T20:59:18.774Z,13.40
2022-07-29T21:01:46.069Z,12.27
2022-07-29T21:04:12.821Z,11.05
2022-07-29T21:06:39.365Z,12.80
2022-07-29T21:09:05.968Z,9.73
2022-07-29T21:11:44.292Z,11.18
2022-07-29T21:14:22.449Z,15.32
2022-07-29T21:16:53.495Z,12.98
2022-07-29T21:19:20.075Z,13.93
2022-07-29T21:21:46.605Z,15.48
2022-07-29T21:24:13.147Z,14.60
2022-07-29T21:26:39.700Z,11.95
2022-07-29T21:29:06.627Z,14.23
2022-07-29T21:31:33.355Z,14.23
2022-07-29T21:33:59.860Z,11.38
2022-07-29T21:36:47.669Z,13.02
2022-07-29T21:39:12.899Z,14.80
2022-07-29T21:41:39.509Z,15.20
2022-07-29T21:44:06.054Z,10.90
2022-07-29T21:46:32.653Z,15.45
2022-07-29T21:48:59.309Z,14.23
2022-07-29T21:51:25.936Z,13.60
2022-07-29T21:53:53.339Z,12.80
2022-07-29T21:56:20.037Z,14.43
2022-07-29T21:58:49.412Z,14.38
2022-07-29T22:01:15.968Z,14.70
2022-07-29T22:03:42.586Z,22.05
2022-07-29T22:06:09.125Z,14.70
2022-07-29T22:08:45.782Z,19.60
2022-07-29T22:11:13.014Z,14.55
2022-07-29T22:13:39.581Z,19.48
2022-07-29T22:16:06.623Z,15.65
2022-07-29T22:18:33.204Z,17.73
2022-07-29T22:20:59.753Z,16.83
2022-07-29T22:23:26.319Z,16.20
2022-07-29T22:25:53.383Z,18.05
2022-07-29T22:28:19.928Z,19.83
2022-07-29T22:30:46.634Z,18.58
2022-07-29T22:33:16.902Z,18.90
2022-07-29T22:35:44.721Z,19.33
2022-07-29T22:38:12.281Z,16.52
2022-07-29T22:40:38.927Z,16.20
2022-07-29T22:43:06.399Z,15.55
2022-07-29T22:45:33.293Z,17.43
2022-07-29T22:47:59.882Z,19.00
2022-07-29T22:50:29.770Z,14.02
2022-07-29T22:52:56.760Z,17.98
2022-07-29T22:55:23.351Z,21.58
2022-07-29T22:57:56.187Z,17.97
2022-07-29T23:00:22.813Z,22.33
2022-07-29T23:02:55.860Z,21.45
2022-07-29T23:05:22.774Z,21.02
2022-07-29T23:07:53.419Z,21.15
2022-07-29T23:10:23.288Z,18.53
2022-07-29T23:12:54.141Z,22.17
2022-07-29T23:15:20.894Z,20.35
2022-07-29T23:17:52.325Z,20.33
2022-07-29T23:20:19.162Z,18.10
2022-07-29T23:22:45.803Z,22.73
2022-07-29T23:25:12.440Z,20.92
2022-07-29T23:27:39.011Z,20.38
2022-07-29T23:30:06.168Z,20.45
2022-07-29T23:32:33.249Z,21.83
2022-07-29T23:34:59.828Z,20.27
2022-07-29T23:37:27.067Z,19.60
2022-07-29T23:39:55.895Z,20.58
2022-07-29T23:42:22.709Z,19.83
2022-07-29T23:44:56.712Z,20.42
2022-07-29T23:47:23.276Z,18.23
2022-07-29T23:49:52.988Z,17.60
2022-07-29T23:52:19.538Z,21.05
2022-07-29T23:54:46.248Z,19.58
2022-07-29T23:57:13.094Z,17.27
2022-07-29T23:59:39.724Z,22.77
